createdAt,value
2023-02-13T00:02:00.430Z,12.73
2023-02-13T00:04:27.578Z,13.55
2023-02-13T00:06:54.410Z,13.00
2023-02-13T00:09:21.148Z,15.02
2023-02-13T00:11:47.922Z,13.05
2023-02-13T00:14:14.684Z,13.70
2023-02-13T00:16:41.427Z,12.63
2023-02-13T00:19:08.232Z,14.02
2023-02-13T00:21:35.010Z,13.82
2023-02-13T00:24:01.742Z,15.30
2023-02-13T00:26:28.911Z,14.40
2023-02-13T00:28:57.287Z,14.52
2023-02-13T00:31:24.149Z,13.63
2023-02-13T00:33:51.137Z,13.18
2023-02-13T00:36:22.542Z,14.05
2023-02-13T00:38:49.472Z,17.25
2023-02-13T00:41:19.751Z,19.45
2023-02-13T00:43:47.672Z,23.67
2023-02-13T00:46:15.318Z,20.08
2023-02-13T00:48:42.386Z,18.92
2023-02-13T00:51:09.640Z,19.05
2023-02-13T00:53:37.538Z,12.30
2023-02-13T00:56:06.134Z,12.90
2023-02-13T00:58:33.657Z,11.45
2023-02-13T01:01:00.642Z,11.75
2023-02-13T01:03:27.874Z,14.52
2023-02-13T01:05:57.240Z,13.20
2023-02-13T01:08:24.557Z,15.50
2023-02-13T01:10:51.352Z,13.48
2023-02-13T01:13:18.670Z,20.92
2023-02-13T01:15:46.666Z,13.65
2023-02-13T01:18:15.183Z,14.52
2023-02-13T01:20:43.933Z,12.45
2023-02-13T01:23:11.722Z,12.70
2023-02-13T01:25:42.337Z,15.15
2023-02-13T01:28:09.450Z,15.50
2023-02-13T01:30:36.258Z,14.88
2023-02-13T01:33:03.042Z,14.07
2023-02-13T01:35:29.798Z,13.85
2023-02-13T01:37:56.571Z,12.88
2023-02-13T01:40:23.316Z,13.18
2023-02-13T01:42:50.064Z,15.23
2023-02-13T01:45:22.918Z,16.63
2023-02-13T01:48:19.137Z,17.27
2023-02-13T01:51:01.962Z,15.98
2023-02-13T01:53:48.145Z,14.65
2023-02-13T01:56:20.337Z,13.88
2023-02-13T01:58:51.243Z,14.95
2023-02-13T02:01:18.870Z,14.00
2023-02-13T02:03:57.541Z,14.75
2023-02-13T02:06:37.057Z,14.35
2023-02-13T02:09:14.306Z,13.68
2023-02-13T02:12:06.700Z,11.20
2023-02-13T02:14:34.270Z,14.20
2023-02-13T02:17:01.086Z,13.55
2023-02-13T02:19:51.221Z,13.90
2023-02-13T02:22:46.810Z,14.48
2023-02-13T02:25:23.854Z,15.10
2023-02-13T02:28:13.654Z,13.60
2023-02-13T02:31:07.219Z,11.82
2023-02-13T02:33:37.310Z,14.38
2023-02-13T02:36:33.333Z,14.25
2023-02-13T02:39:26.656Z,14.10
2023-02-13T02:42:01.958Z,12.48
2023-02-13T02:44:32.712Z,11.80
2023-02-13T02:47:37.295Z,13.30
2023-02-13T02:52:49.530Z,13.73
2023-02-13T02:55:28.754Z,14.25
2023-02-13T02:58:27.588Z,14.32
2023-02-13T03:01:15.952Z,12.68
2023-02-13T03:04:02.235Z,15.52
2023-02-13T03:06:46.273Z,16.38
2023-02-13T03:09:39.942Z,14.80
2023-02-13T03:12:27.894Z,17.65
2023-02-13T03:14:54.748Z,17.63
2023-02-13T03:17:40.056Z,15.07
2023-02-13T03:20:50.322Z,15.80
2023-02-13T03:23:56.210Z,16.30
2023-02-13T03:27:43.134Z,15.93
2023-02-13T03:30:50.480Z,15.27
2023-02-13T03:33:53.347Z,17.10
2023-02-13T03:37:02.636Z,14.77
2023-02-13T03:39:56.477Z,16.65
2023-02-13T03:42:36.799Z,15.57
2023-02-13T03:45:24.278Z,17.52
2023-02-13T03:47:55.060Z,17.55
2023-02-13T03:50:22.956Z,15.70
2023-02-13T03:53:15.986Z,13.40
2023-02-13T03:56:04.737Z,13.52
2023-02-13T03:58:59.418Z,13.05
2023-02-13T04:01:29.348Z,13.05
2023-02-13T04:04:38.294Z,12.93
2023-02-13T04:07:09.948Z,10.45
2023-02-13T04:09:41.161Z,8.63
2023-02-13T04:12:17.371Z,10.40
2023-02-13T04:15:02.073Z,11.43
2023-02-13T04:17:37.564Z,12.63
2023-02-13T04:20:05.525Z,12.52
2023-02-13T04:22:32.300Z,13.77
2023-02-13T04:24:59.261Z,16.25
2023-02-13T04:27:28.044Z,15.15
2023-02-13T04:29:54.793Z,17.00
2023-02-13T04:32:21.577Z,15.95
2023-02-13T04:34:48.315Z,14.10
2023-02-13T04:37:15.021Z,14.73
2023-02-13T04:39:41.822Z,15.52
2023-02-13T04:42:08.613Z,14.02
2023-02-13T04:44:35.350Z,13.73
2023-02-13T04:47:02.070Z,14.25
2023-02-13T04:49:28.891Z,12.98
2023-02-13T04:51:55.592Z,12.00
2023-02-13T04:54:22.336Z,11.68
2023-02-13T04:56:49.104Z,12.73
2023-02-13T04:59:15.835Z,12.80
2023-02-13T05:01:42.625Z,11.77
2023-02-13T05:04:11.159Z,15.90
2023-02-13T05:06:38.437Z,11.48
2023-02-13T05:09:05.175Z,11.95
2023-02-13T05:11:31.928Z,10.32
2023-02-13T05:13:58.698Z,10.52
2023-02-13T05:16:25.478Z,11.52
2023-02-13T05:18:54.890Z,10.82
2023-02-13T05:21:40.899Z,10.75
2023-02-13T05:24:08.034Z,10.65
2023-02-13T05:26:34.769Z,11.13
2023-02-13T05:29:19.867Z,11.27
2023-02-13T05:31:58.322Z,13.52
2023-02-13T05:34:27.901Z,11.85
2023-02-13T05:36:55.450Z,11.45
2023-02-13T05:39:22.641Z,13.38
2023-02-13T05:41:49.789Z,13.63
2023-02-13T05:44:17.241Z,12.15
2023-02-13T05:46:44.982Z,11.45
2023-02-13T05:49:13.590Z,14.43
2023-02-13T05:51:40.446Z,13.77
2023-02-13T05:54:07.197Z,13.93
2023-02-13T05:56:33.996Z,13.63
2023-02-13T05:59:00.847Z,11.48
2023-02-13T06:01:27.646Z,12.25
2023-02-13T06:03:54.532Z,10.70
2023-02-13T06:06:22.718Z,13.25
2023-02-13T06:08:49.480Z,15.02
2023-02-13T06:11:16.226Z,11.82
2023-02-13T06:13:43.025Z,11.52
2023-02-13T06:16:11.420Z,15.43
2023-02-13T06:18:39.215Z,12.38
2023-02-13T06:21:06.766Z,12.63
2023-02-13T06:23:34.147Z,12.80
2023-02-13T06:26:08.611Z,16.17
2023-02-13T06:28:36.690Z,10.23
2023-02-13T06:31:03.810Z,10.20
2023-02-13T06:33:30.969Z,12.73
2023-02-13T06:35:57.911Z,11.65
2023-02-13T06:38:24.636Z,12.35
2023-02-13T06:40:51.770Z,10.70
2023-02-13T06:43:18.965Z,11.13
2023-02-13T06:45:47.159Z,12.43
2023-02-13T06:48:14.590Z,15.80
2023-02-13T06:50:41.631Z,12.75
2023-02-13T06:53:08.564Z,12.60
2023-02-13T06:55:36.058Z,11.68
2023-02-13T06:58:02.863Z,14.82
2023-02-13T07:00:29.687Z,12.60
2023-02-13T07:03:02.180Z,12.40
2023-02-13T07:05:29.629Z,12.55
2023-02-13T07:07:56.493Z,13.10
2023-02-13T07:10:24.414Z,15.02
2023-02-13T07:13:03.683Z,13.93
2023-02-13T07:15:32.795Z,13.75
2023-02-13T07:18:00.322Z,13.13
2023-02-13T07:20:28.171Z,13.82
2023-02-13T07:22:59.885Z,13.18
2023-02-13T07:25:27.839Z,16.05
2023-02-13T07:27:54.856Z,12.68
2023-02-13T07:30:21.753Z,13.57
2023-02-13T07:32:48.528Z,13.00
2023-02-13T07:35:15.357Z,12.93
2023-02-13T07:37:42.117Z,14.45
2023-02-13T07:40:09.497Z,13.40
2023-02-13T07:42:36.365Z,13.18
2023-02-13T07:45:05.658Z,14.73
2023-02-13T07:47:34.036Z,14.50
2023-02-13T07:50:03.070Z,17.35
2023-02-13T07:52:30.608Z,16.80
2023-02-13T07:54:57.322Z,17.52
2023-02-13T07:57:24.092Z,18.58
2023-02-13T07:59:50.827Z,18.48
2023-02-13T08:02:17.873Z,20.10
2023-02-13T08:04:46.910Z,19.02
2023-02-13T08:07:15.563Z,19.23
2023-02-13T08:10:03.416Z,23.33
2023-02-13T08:12:31.558Z,20.50
2023-02-13T08:14:58.403Z,16.35
2023-02-13T08:17:25.164Z,22.33
2023-02-13T08:19:51.906Z,22.83
2023-02-13T08:22:18.666Z,26.05
2023-02-13T08:24:46.186Z,26.17
2023-02-13T08:27:14.830Z,23.33
2023-02-13T08:29:42.040Z,25.73
2023-02-13T08:32:08.906Z,31.30
2023-02-13T08:34:35.872Z,23.15
2023-02-13T08:37:03.622Z,18.00
2023-02-13T08:39:30.422Z,17.38
2023-02-13T08:41:57.732Z,21.63
2023-02-13T08:44:24.798Z,20.30
2023-02-13T08:46:52.649Z,21.02
2023-02-13T08:49:20.578Z,21.77
2023-02-13T08:51:47.674Z,28.33
2023-02-13T08:54:16.556Z,24.35
2023-02-13T08:56:44.015Z,25.85
2023-02-13T08:59:11.251Z,26.75
2023-02-13T09:01:38.539Z,21.98
2023-02-13T09:04:06.206Z,22.60
2023-02-13T09:06:32.997Z,23.17
2023-02-13T09:08:59.810Z,21.75
2023-02-13T09:11:26.576Z,24.15
2023-02-13T09:13:54.161Z,20.65
2023-02-13T09:16:21.898Z,22.48
2023-02-13T09:18:50.356Z,21.92
2023-02-13T09:21:17.930Z,21.58
2023-02-13T09:23:45.417Z,23.05
2023-02-13T09:26:15.081Z,25.38
2023-02-13T09:28:44.246Z,23.30
2023-02-13T09:31:17.772Z,22.52
2023-02-13T09:33:46.574Z,20.25
2023-02-13T09:36:20.107Z,24.85
2023-02-13T09:38:51.683Z,27.48
2023-02-13T09:41:24.241Z,22.75
2023-02-13T09:44:01.179Z,23.08
2023-02-13T09:46:40.280Z,24.00
2023-02-13T09:49:14.485Z,23.00
2023-02-13T09:51:54.268Z,23.40
2023-02-13T09:54:21.166Z,22.73
2023-02-13T09:57:05.317Z,23.33
2023-02-13T09:59:57.054Z,24.95
2023-02-13T10:02:42.383Z,26.42
2023-02-13T10:05:37.068Z,28.15
2023-02-13T10:08:27.867Z,27.17
2023-02-13T10:11:06.345Z,24.73
2023-02-13T10:13:59.899Z,24.63
2023-02-13T10:16:36.876Z,27.55
2023-02-13T10:19:14.160Z,28.40
2023-02-13T10:21:50.851Z,26.38
2023-02-13T10:24:27.406Z,24.25
2023-02-13T10:26:57.907Z,26.52
2023-02-13T10:30:02.198Z,26.90
2023-02-13T10:32:37.802Z,23.80
2023-02-13T10:35:18.634Z,23.05
2023-02-13T10:37:51.025Z,22.27
2023-02-13T10:40:19.027Z,21.70
2023-02-13T10:42:53.711Z,24.05
2023-02-13T10:45:31.034Z,26.10
2023-02-13T10:48:13.023Z,21.27
2023-02-13T10:51:04.560Z,21.70
2023-02-13T10:53:43.122Z,19.48
2023-02-13T10:56:25.307Z,23.10
2023-02-13T10:59:14.573Z,19.65
2023-02-13T11:02:02.191Z,26.40
2023-02-13T11:04:29.915Z,20.98
2023-02-13T11:07:05.949Z,21.05
2023-02-13T11:09:39.904Z,24.35
2023-02-13T11:12:34.606Z,19.98
2023-02-13T11:15:07.156Z,19.67
2023-02-13T11:17:41.492Z,25.20
2023-02-13T11:20:26.508Z,21.02
2023-02-13T11:22:53.849Z,20.25
2023-02-13T11:25:26.597Z,22.20
2023-02-13T11:28:16.428Z,21.38
2023-02-13T11:30:43.238Z,24.80
2023-02-13T11:33:27.352Z,22.05
2023-02-13T11:36:23.442Z,22.40
2023-02-13T11:39:01.807Z,23.63
2023-02-13T11:41:32.471Z,23.90
2023-02-13T11:44:02.015Z,18.45
2023-02-13T11:46:44.085Z,23.85
2023-02-13T11:49:38.785Z,19.13
2023-02-13T11:52:11.121Z,21.10
2023-02-13T11:54:43.608Z,19.23
2023-02-13T11:57:30.925Z,21.25
2023-02-13T11:59:59.288Z,21.30
2023-02-13T12:02:47.134Z,21.35
2023-02-13T12:05:17.660Z,20.98
2023-02-13T12:07:45.701Z,21.05
2023-02-13T12:10:17.222Z,19.88
2023-02-13T12:12:55.198Z,21.38
2023-02-13T12:15:29.585Z,22.05
2023-02-13T12:18:09.436Z,22.25
2023-02-13T12:20:53.989Z,24.10
2023-02-13T12:25:57.413Z,28.40
2023-02-13T12:28:45.130Z,25.13
2023-02-13T12:31:40.478Z,23.30
2023-02-13T12:34:23.835Z,18.02
2023-02-13T12:37:18.392Z,22.73
2023-02-13T12:40:15.731Z,17.42
2023-02-13T12:43:22.014Z,19.45
2023-02-13T12:45:57.149Z,18.73
2023-02-13T12:48:45.456Z,18.77
2023-02-13T12:51:32.300Z,21.00
2023-02-13T12:54:05.089Z,19.45
2023-02-13T12:56:56.819Z,19.40
2023-02-13T13:00:02.935Z,19.55
2023-02-13T13:02:56.118Z,20.55
2023-02-13T13:05:27.399Z,16.88
2023-02-13T13:08:33.195Z,15.40
2023-02-13T13:11:26.576Z,13.73
2023-02-13T13:14:11.150Z,13.57
2023-02-13T13:16:55.649Z,12.32
2023-02-13T13:19:43.189Z,9.38
2023-02-13T13:22:26.423Z,8.35
2023-02-13T13:25:27.790Z,11.40
2023-02-13T13:28:01.896Z,10.27
2023-02-13T13:30:34.544Z,10.95
2023-02-13T13:33:09.947Z,11.68
2023-02-13T13:35:41.797Z,10.23
2023-02-13T13:38:18.601Z,10.67
2023-02-13T13:41:00.319Z,10.98
2023-02-13T13:43:37.515Z,9.38
2023-02-13T13:46:33.697Z,10.25
2023-02-13T13:49:19.219Z,9.05
2023-02-13T13:51:45.979Z,10.73
2023-02-13T13:54:23.681Z,10.48
2023-02-13T13:56:53.314Z,9.90
2023-02-13T13:59:43.931Z,9.32
2023-02-13T14:02:19.866Z,13.77
2023-02-13T14:05:26.006Z,10.95
2023-02-13T14:07:59.071Z,10.40
2023-02-13T14:10:25.906Z,9.95
2023-02-13T14:12:55.702Z,11.30
2023-02-13T14:15:34.978Z,9.32
2023-02-13T14:18:23.757Z,8.45
2023-02-13T14:20:55.509Z,12.77
2023-02-13T14:23:49.919Z,11.88
2023-02-13T14:26:17.012Z,11.13
2023-02-13T14:29:00.970Z,11.50
2023-02-13T14:31:39.333Z,12.55
2023-02-13T14:34:11.967Z,14.20
2023-02-13T14:36:42.218Z,11.60
2023-02-13T14:39:24.033Z,10.77
2023-02-13T14:41:54.059Z,10.20
2023-02-13T14:44:34.340Z,13.15
2023-02-13T14:47:05.193Z,11.02
2023-02-13T14:49:35.865Z,13.02
2023-02-13T14:52:08.381Z,12.43
2023-02-13T14:54:49.602Z,11.57
2023-02-13T14:57:39.763Z,9.98
2023-02-13T15:00:26.025Z,11.02
2023-02-13T15:03:02.355Z,12.20
2023-02-13T15:05:33.845Z,11.25
2023-02-13T15:08:20.988Z,11.80
2023-02-13T15:10:50.390Z,11.93
2023-02-13T15:13:20.627Z,11.05
2023-02-13T15:16:09.406Z,11.23
2023-02-13T15:18:49.918Z,11.15
2023-02-13T15:21:20.821Z,12.32
2023-02-13T15:23:55.360Z,11.98
2023-02-13T15:26:26.284Z,14.18
2023-02-13T15:29:00.917Z,11.38
2023-02-13T15:31:33.514Z,12.23
2023-02-13T15:34:01.257Z,11.75
2023-02-13T15:36:39.442Z,12.07
2023-02-13T15:39:11.229Z,11.05
2023-02-13T15:41:40.911Z,11.77
2023-02-13T15:44:08.073Z,11.20
2023-02-13T15:46:38.615Z,12.57
2023-02-13T15:49:14.146Z,11.80
2023-02-13T15:51:41.268Z,13.43
2023-02-13T15:54:22.237Z,15.85
2023-02-13T15:56:54.410Z,12.35
2023-02-13T15:59:26.310Z,10.60
2023-02-13T16:01:53.937Z,11.55
2023-02-13T16:04:22.649Z,14.55
2023-02-13T16:06:53.514Z,10.30
2023-02-13T16:09:32.015Z,14.45
2023-02-13T16:12:05.498Z,12.95
2023-02-13T16:17:07.051Z,13.60
2023-02-13T16:19:57.425Z,10.70
2023-02-13T16:22:35.993Z,13.43
2023-02-13T16:25:23.822Z,12.38
2023-02-13T16:27:59.948Z,12.15
2023-02-13T16:30:39.775Z,16.75
2023-02-13T16:33:09.514Z,16.42
2023-02-13T16:35:38.893Z,14.85
2023-02-13T16:38:24.084Z,13.98
2023-02-13T16:40:50.926Z,14.27
2023-02-13T16:43:53.744Z,14.60
2023-02-13T16:46:31.450Z,11.85
2023-02-13T16:48:58.642Z,17.98
2023-02-13T16:51:39.736Z,29.20
2023-02-13T16:54:19.986Z,29.08
2023-02-13T16:56:57.298Z,21.23
2023-02-13T16:59:51.216Z,14.95
2023-02-13T17:02:38.419Z,15.50
2023-02-13T17:05:08.153Z,15.05
2023-02-13T17:07:41.524Z,14.52
2023-02-13T17:10:17.669Z,19.38
2023-02-13T17:12:45.464Z,16.77
2023-02-13T17:15:14.299Z,15.60
2023-02-13T17:17:41.088Z,17.77
2023-02-13T17:20:09.158Z,18.77
2023-02-13T17:22:39.931Z,14.30
2023-02-13T17:25:15.417Z,18.40
2023-02-13T17:27:45.468Z,14.73
2023-02-13T17:30:18.695Z,16.80
2023-02-13T17:32:47.158Z,12.98
2023-02-13T17:35:14.920Z,16.42
2023-02-13T17:37:43.415Z,15.13
2023-02-13T17:40:17.329Z,22.33
2023-02-13T17:42:46.453Z,19.15
2023-02-13T17:45:18.158Z,14.60
2023-02-13T17:47:45.872Z,19.77
2023-02-13T17:50:13.897Z,24.55
2023-02-13T17:52:42.033Z,23.00
2023-02-13T17:55:24.462Z,19.60
2023-02-13T17:57:52.321Z,16.10
2023-02-13T18:00:20.889Z,14.80
2023-02-13T18:02:49.200Z,16.77
2023-02-13T18:05:17.008Z,15.77
2023-02-13T18:07:44.870Z,15.73
2023-02-13T18:10:21.428Z,14.10
2023-02-13T18:12:52.041Z,17.00
2023-02-13T18:15:19.304Z,18.42
2023-02-13T18:17:46.521Z,17.90
2023-02-13T18:20:17.082Z,16.67
2023-02-13T18:22:44.050Z,13.23
2023-02-13T18:25:11.334Z,15.23
2023-02-13T18:27:38.138Z,16.05
2023-02-13T18:30:05.658Z,15.20
2023-02-13T18:32:32.606Z,15.80
2023-02-13T18:34:59.510Z,14.02
2023-02-13T18:37:29.366Z,13.55
2023-02-13T18:39:56.734Z,15.32
2023-02-13T18:42:23.489Z,15.23
2023-02-13T18:44:50.207Z,16.13
2023-02-13T18:47:17.503Z,15.85
2023-02-13T18:49:46.349Z,16.08
2023-02-13T18:52:13.089Z,16.30
2023-02-13T18:54:40.145Z,17.77
2023-02-13T18:57:06.881Z,19.40
2023-02-13T18:59:33.595Z,17.98
2023-02-13T19:02:02.118Z,14.68
2023-02-13T19:04:30.129Z,16.23
2023-02-13T19:06:56.863Z,18.50
2023-02-13T19:09:23.646Z,18.75
2023-02-13T19:11:51.580Z,16.02
2023-02-13T19:14:18.574Z,16.38
2023-02-13T19:16:45.338Z,13.43
2023-02-13T19:19:12.130Z,13.98
2023-02-13T19:21:39.465Z,13.05
2023-02-13T19:24:09.098Z,15.80
2023-02-13T19:26:36.363Z,16.58
2023-02-13T19:29:03.632Z,15.95
2023-02-13T19:31:32.161Z,14.52
2023-02-13T19:34:00.463Z,14.88
2023-02-13T19:36:29.921Z,14.07
2023-02-13T19:39:03.721Z,14.88
2023-02-13T19:41:30.963Z,13.02
2023-02-13T19:43:58.457Z,12.68
2023-02-13T19:46:30.892Z,12.73
2023-02-13T19:48:58.491Z,14.00
2023-02-13T19:51:31.092Z,12.60
2023-02-13T19:54:03.144Z,14.82
2023-02-13T19:56:30.927Z,15.52
2023-02-13T19:58:57.712Z,15.75
2023-02-13T20:01:26.306Z,13.63
2023-02-13T20:03:53.262Z,17.92
2023-02-13T20:06:25.982Z,15.77
2023-02-13T20:08:53.570Z,18.52
2023-02-13T20:11:22.277Z,16.70
2023-02-13T20:13:52.738Z,13.85
2023-02-13T20:16:19.631Z,12.73
2023-02-13T20:18:46.366Z,17.95
2023-02-13T20:21:15.900Z,12.73
2023-02-13T20:23:47.288Z,14.63
2023-02-13T20:26:15.151Z,11.70
2023-02-13T20:28:43.343Z,13.13
2023-02-13T20:31:16.214Z,10.50
2023-02-13T20:33:43.527Z,12.57
2023-02-13T20:36:25.049Z,16.52
2023-02-13T20:38:55.148Z,14.82
2023-02-13T20:41:24.502Z,21.48
2023-02-13T20:43:51.830Z,14.35
2023-02-13T20:46:18.916Z,14.63
2023-02-13T20:48:47.241Z,26.05
2023-02-13T20:51:17.090Z,30.73
2023-02-13T20:53:45.310Z,23.42
2023-02-13T20:56:17.983Z,20.60
2023-02-13T20:58:46.420Z,20.88
2023-02-13T21:01:14.113Z,14.23
2023-02-13T21:03:42.119Z,13.27
2023-02-13T21:06:10.482Z,13.48
2023-02-13T21:08:37.764Z,14.18
2023-02-13T21:11:06.527Z,22.38
2023-02-13T21:13:34.378Z,12.65
2023-02-13T21:16:05.434Z,12.73
2023-02-13T21:18:32.218Z,17.98
2023-02-13T21:20:59.426Z,16.73
2023-02-13T21:23:26.657Z,17.23
2023-02-13T21:25:53.397Z,18.75
2023-02-13T21:28:20.325Z,17.58
2023-02-13T21:30:47.952Z,16.55
2023-02-13T21:33:14.721Z,17.25
2023-02-13T21:35:41.560Z,18.83
2023-02-13T21:38:08.288Z,19.88
2023-02-13T21:40:35.216Z,15.05
2023-02-13T21:43:01.945Z,15.02
2023-02-13T21:45:28.780Z,12.10
2023-02-13T21:47:56.552Z,15.27
2023-02-13T21:50:23.732Z,14.45
2023-02-13T21:52:50.487Z,13.95
2023-02-13T21:55:17.246Z,15.68
2023-02-13T21:57:44.068Z,15.63
2023-02-13T22:00:11.550Z,13.75
2023-02-13T22:02:39.648Z,17.38
2023-02-13T22:05:06.694Z,17.30
2023-02-13T22:07:53.391Z,16.42
2023-02-13T22:10:20.149Z,15.02
2023-02-13T22:12:51.112Z,15.82
2023-02-13T22:15:17.973Z,17.90
2023-02-13T22:17:44.738Z,16.25
2023-02-13T22:20:12.882Z,18.73
2023-02-13T22:22:39.671Z,15.00
2023-02-13T22:25:07.013Z,17.88
2023-02-13T22:27:33.760Z,20.30
2023-02-13T22:30:00.533Z,18.50
2023-02-13T22:32:27.279Z,19.70
2023-02-13T22:34:54.028Z,23.02
2023-02-13T22:37:20.720Z,26.45
2023-02-13T22:39:47.576Z,21.65
2023-02-13T22:42:14.368Z,23.02
2023-02-13T22:44:41.117Z,19.20
2023-02-13T22:47:07.876Z,19.88
2023-02-13T22:49:35.910Z,18.63
2023-02-13T22:52:02.835Z,17.65
2023-02-13T22:54:29.664Z,16.75
2023-02-13T22:56:56.370Z,19.50
2023-02-13T22:59:23.326Z,14.88
2023-02-13T23:01:50.040Z,17.30
2023-02-13T23:04:16.899Z,16.65
2023-02-13T23:06:43.729Z,17.88
2023-02-13T23:09:10.893Z,19.38
2023-02-13T23:11:56.220Z,19.15
2023-02-13T23:14:24.902Z,19.45
2023-02-13T23:17:10.287Z,18.90
2023-02-13T23:19:37.321Z,19.75
2023-02-13T23:22:04.100Z,15.77
2023-02-13T23:24:31.164Z,14.48
2023-02-13T23:26:59.273Z,16.02
2023-02-13T23:29:26.447Z,19.95
2023-02-13T23:31:53.363Z,18.27
2023-02-13T23:34:20.287Z,17.17
2023-02-13T23:36:47.137Z,22.50
2023-02-13T23:39:13.937Z,21.05
2023-02-13T23:41:40.795Z,18.67
2023-02-13T23:44:07.507Z,18.15
2023-02-13T23:46:34.274Z,17.50
2023-02-13T23:49:01.096Z,18.77
2023-02-13T23:51:27.814Z,18.58
2023-02-13T23:53:56.221Z,18.15
2023-02-13T23:56:24.655Z,20.05
2023-02-13T23:58:51.421Z,19.30
